Guilin, Guangxi

8:56 PM CST on May 03, 2015 (GMT +0800)
Liangjiang | | Change Station
CLOSE
Current Station
Airport
Location: Guilin,
Elevation: 545 ft
Nearby Weather Stations

Elev 545 ft 25.33 °N, 110.30 °E | Updated 56 minutes ago

Overcast
Overcast
72 °F
Feels Like 72 °F
N
4
Wind Variable Wind from Variable

Today
High -- | Low -- °F
--% Chance of Precip.
Yesterday
High -- | Low -- °F
Precip. -- in
6:02 AM 7:10 PM
Full, 100% visible
Pressure 29.80 in
Visibility -9999.0 miles
Clouds Few 1600 ft
Scattered Clouds 3000 ft
Overcast 6000 ft
Dew Point 70 °F
Humidity 94%
Rainfall 0.00 in
Snow Depth Not available.
UV 0 out of 12
Pollen Not available.
Air Quality Not available.
Flu Activity Not available.
METAR ZGKL 031200Z VRB02MPS 3200 BR FEW016 SCT030 OVC060 22/21 Q1009 BECMG FM1400 2600

More Conditions Fewer Conditions

Pressure 29.80 in
Visibility -9999.0 miles
Clouds Few 1600 ft
Scattered Clouds 3000 ft
Overcast 6000 ft
Dew Point 70 °F
Humidity 94%
Rainfall 0.00 in
Snow Depth Not available.
UV 0 out of 12
Pollen Not available.
Air Quality Not available.
Flu Activity Not available.
METAR ZGKL 031200Z VRB02MPS 3200 BR FEW016 SCT030 OVC060 22/21 Q1009 BECMG FM1400 2600

More Conditions Fewer Conditions

10-Day Weather Forecast

Almanac

Astronomy

May. 03, 2015 Rise Set
Actual Time
Civil Twilight
Nautical Twilight
Astronomical Twilight
Moon
Length of Visible Light
Length of Day
Tomorrow will be .
, % of the Moon is Illuminated

Today's Extremes

Country Highs Country Lows

Community

WunderPhotos

Upload Photos

1,818,200 photos uploaded!

WunderBlogs® & News

Nearby

Air Quality

  Air Quality AQ Index Pollutant
Not available.

Snow Depth

Station Depth Elevation

Earthquake Activity

City Distance Mag. Time & Date
Minimum magnitude displayed is 2.5.

Coastal Water Temperatures

Place Temperature

Stations

Nearby Weather Stations

Station Location Temp. Windchill Dew Point Humidity Wind Precip. Elev Updated Type